createdAt,value
2023-09-05T00:00:14.119Z,17.40
2023-09-05T00:02:46.244Z,17.40
2023-09-05T00:05:13.331Z,17.40
2023-09-05T00:07:41.511Z,17.40
2023-09-05T00:10:12.120Z,17.30
2023-09-05T00:12:42.670Z,17.30
2023-09-05T00:15:14.240Z,17.30
2023-09-05T00:17:41.701Z,17.30
2023-09-05T00:20:09.197Z,17.30
2023-09-05T00:22:36.210Z,17.30
2023-09-05T00:25:04.148Z,17.30
2023-09-05T00:27:31.023Z,17.30
2023-09-05T00:29:58.684Z,17.30
2023-09-05T00:32:25.505Z,17.20
2023-09-05T00:34:52.344Z,17.20
2023-09-05T00:37:23.842Z,17.20
2023-09-05T00:39:51.070Z,17.20
2023-09-05T00:42:18.639Z,17.20
2023-09-05T00:44:47.910Z,17.20
2023-09-05T00:47:14.759Z,17.10
2023-09-05T00:49:48.196Z,17.10
2023-09-05T00:52:15.279Z,17.10
2023-09-05T00:54:42.511Z,17.10
2023-09-05T00:57:15.784Z,17.10
2023-09-05T00:59:43.611Z,17.10
2023-09-05T01:02:16.764Z,17.10
2023-09-05T01:04:44.607Z,17.00
2023-09-05T01:07:19.534Z,17.00
2023-09-05T01:09:55.034Z,17.00
2023-09-05T01:12:21.875Z,17.00
2023-09-05T01:14:48.713Z,17.00
2023-09-05T01:17:15.810Z,17.00
2023-09-05T01:19:42.977Z,17.00
2023-09-05T01:22:18.841Z,17.00
2023-09-05T01:24:48.801Z,16.90
2023-09-05T01:27:18.914Z,16.90
2023-09-05T01:29:45.925Z,16.90
2023-09-05T01:32:13.085Z,16.90
2023-09-05T01:34:40.224Z,16.90
2023-09-05T01:37:07.054Z,16.90
2023-09-05T01:39:34.069Z,16.90
2023-09-05T01:42:00.931Z,16.90
2023-09-05T01:44:27.794Z,16.90
2023-09-05T01:46:54.705Z,16.80
2023-09-05T01:49:21.634Z,16.80
2023-09-05T01:51:48.515Z,16.80
2023-09-05T01:54:15.365Z,16.80
2023-09-05T01:56:42.193Z,16.80
2023-09-05T01:59:09.245Z,16.70
2023-09-05T02:01:36.053Z,16.70
2023-09-05T02:04:02.913Z,16.70
2023-09-05T02:06:30.889Z,16.70
2023-09-05T02:08:57.623Z,16.70
2023-09-05T02:11:24.702Z,16.60
2023-09-05T02:13:51.489Z,16.60
2023-09-05T02:16:20.224Z,16.60
2023-09-05T02:18:53.366Z,16.60
2023-09-05T02:21:20.127Z,16.50
2023-09-05T02:23:46.921Z,16.50
2023-09-05T02:26:14.220Z,16.50
2023-09-05T02:28:41.062Z,16.50
2023-09-05T02:31:08.144Z,16.50
2023-09-05T02:33:38.338Z,16.40
2023-09-05T02:36:16.598Z,16.40
2023-09-05T02:38:44.014Z,16.40
2023-09-05T02:41:17.816Z,16.40
2023-09-05T02:43:48.860Z,16.40
2023-09-05T02:46:15.950Z,16.40
2023-09-05T02:48:43.069Z,16.30
2023-09-05T02:51:11.173Z,16.30
2023-09-05T02:53:38.473Z,16.30
2023-09-05T02:56:05.676Z,16.30
2023-09-05T02:58:33.512Z,16.20
2023-09-05T03:01:04.336Z,16.20
2023-09-05T03:03:32.160Z,16.20
2023-09-05T03:06:08.077Z,16.20
2023-09-05T03:08:37.339Z,16.10
2023-09-05T03:11:04.142Z,16.10
2023-09-05T03:13:31.020Z,16.10
2023-09-05T03:15:57.819Z,16.10
2023-09-05T03:18:26.338Z,16.00
2023-09-05T03:20:56.244Z,16.00
2023-09-05T03:23:24.116Z,15.90
2023-09-05T03:25:53.166Z,16.00
2023-09-05T03:28:20.744Z,16.00
2023-09-05T03:30:47.643Z,16.00
2023-09-05T03:33:14.456Z,15.90
2023-09-05T03:35:43.188Z,15.90
2023-09-05T03:38:10.456Z,15.90
2023-09-05T03:40:37.482Z,15.90
2023-09-05T03:43:04.381Z,15.90
2023-09-05T03:45:32.039Z,15.90
2023-09-05T03:48:02.084Z,15.90
2023-09-05T03:50:29.829Z,15.90
2023-09-05T03:52:56.830Z,15.90
2023-09-05T03:55:23.941Z,15.90
2023-09-05T03:57:50.945Z,15.80
2023-09-05T04:00:18.385Z,15.80
2023-09-05T04:02:45.351Z,15.80
2023-09-05T04:05:12.771Z,15.80
2023-09-05T04:07:41.840Z,15.80
2023-09-05T04:10:09.965Z,15.80
2023-09-05T04:12:38.347Z,15.80
2023-09-05T04:15:05.999Z,15.80
2023-09-05T04:17:32.855Z,15.80
2023-09-05T04:20:00.041Z,15.80
2023-09-05T04:22:29.463Z,15.70
2023-09-05T04:24:56.377Z,15.70
2023-09-05T04:27:25.190Z,15.70
2023-09-05T04:29:52.533Z,15.70
2023-09-05T04:32:30.120Z,15.70
2023-09-05T04:34:58.034Z,15.70
2023-09-05T04:37:25.032Z,15.70
2023-09-05T04:39:52.156Z,15.60
2023-09-05T04:42:18.900Z,15.70
2023-09-05T04:44:45.764Z,15.70
2023-09-05T04:47:25.485Z,15.70
2023-09-05T04:49:54.190Z,15.70
2023-09-05T04:52:21.811Z,15.70
2023-09-05T04:54:48.741Z,15.70
2023-09-05T04:57:15.852Z,15.70
2023-09-05T04:59:45.046Z,15.70
2023-09-05T05:02:12.064Z,15.60
2023-09-05T05:04:38.919Z,15.60
2023-09-05T05:07:05.646Z,15.60
2023-09-05T05:09:32.422Z,15.60
2023-09-05T05:12:00.411Z,15.50
2023-09-05T05:14:27.622Z,15.50
2023-09-05T05:16:55.077Z,15.40
2023-09-05T05:19:22.781Z,15.40
2023-09-05T05:21:50.202Z,15.30
2023-09-05T05:24:17.001Z,15.30
2023-09-05T05:26:44.272Z,15.20
2023-09-05T05:29:11.168Z,15.20
2023-09-05T05:31:38.927Z,15.10
2023-09-05T05:34:05.783Z,15.10
2023-09-05T05:36:32.816Z,15.10
2023-09-05T05:39:00.177Z,15.10
2023-09-05T05:41:28.983Z,15.00
2023-09-05T05:43:58.790Z,15.00
2023-09-05T05:46:25.697Z,15.00
2023-09-05T05:48:53.067Z,15.00
2023-09-05T05:51:20.105Z,15.10
2023-09-05T05:53:47.923Z,15.10
2023-09-05T05:56:14.792Z,15.10
2023-09-05T05:58:41.734Z,15.10
2023-09-05T06:01:09.127Z,15.10
2023-09-05T06:03:36.685Z,15.20
2023-09-05T06:06:04.595Z,15.20
2023-09-05T06:08:31.890Z,15.20
2023-09-05T06:10:59.045Z,15.20
2023-09-05T06:13:26.129Z,15.30
2023-09-05T06:15:53.597Z,15.30
2023-09-05T06:18:20.852Z,15.30
2023-09-05T06:20:47.635Z,15.30
2023-09-05T06:23:14.744Z,15.40
2023-09-05T06:25:41.735Z,15.40
2023-09-05T06:28:11.286Z,15.40
2023-09-05T06:30:38.079Z,15.50
2023-09-05T06:33:05.359Z,15.50
2023-09-05T06:35:32.126Z,15.60
2023-09-05T06:37:59.045Z,15.70
2023-09-05T06:40:26.232Z,15.70
2023-09-05T06:42:55.790Z,15.80
2023-09-05T06:45:22.751Z,15.90
2023-09-05T06:47:49.634Z,15.90
2023-09-05T06:50:16.576Z,16.10
2023-09-05T06:52:43.595Z,16.20
2023-09-05T06:55:11.063Z,16.30
2023-09-05T06:57:38.012Z,16.40
2023-09-05T07:00:05.256Z,16.40
2023-09-05T07:02:32.111Z,16.60
2023-09-05T07:04:58.948Z,16.70
2023-09-05T07:07:26.896Z,16.80
2023-09-05T07:09:54.623Z,16.90
2023-09-05T07:12:21.483Z,17.00
2023-09-05T07:14:49.995Z,17.00
2023-09-05T07:17:19.889Z,17.20
2023-09-05T07:19:47.928Z,17.30
2023-09-05T07:22:14.811Z,17.40
2023-09-05T07:24:41.723Z,17.60
2023-09-05T07:27:25.069Z,17.60
2023-09-05T07:29:54.994Z,17.70
2023-09-05T07:32:21.822Z,17.90
2023-09-05T07:34:50.104Z,18.00
2023-09-05T07:37:17.277Z,18.10
2023-09-05T07:39:46.328Z,18.20
2023-09-05T07:42:13.090Z,18.40
2023-09-05T07:44:40.896Z,18.50
2023-09-05T07:47:07.855Z,18.60
2023-09-05T07:49:38.556Z,18.70
2023-09-05T07:52:35.274Z,18.90
2023-09-05T07:55:02.254Z,19.00
2023-09-05T07:57:29.381Z,19.00
2023-09-05T07:59:56.380Z,19.10
2023-09-05T08:02:23.237Z,19.20
2023-09-05T08:04:53.167Z,19.20
2023-09-05T08:07:19.927Z,19.30
2023-09-05T08:09:49.718Z,19.30
2023-09-05T08:12:16.534Z,19.30
2023-09-05T08:14:43.448Z,19.40
2023-09-05T08:17:13.015Z,19.40
2023-09-05T08:19:41.319Z,19.50
2023-09-05T08:22:08.318Z,19.50
2023-09-05T08:24:36.743Z,19.60
2023-09-05T08:27:06.238Z,19.70
2023-09-05T08:29:33.615Z,19.80
2023-09-05T08:32:00.831Z,19.90
2023-09-05T08:34:27.713Z,20.00
2023-09-05T08:36:59.305Z,20.20
2023-09-05T08:39:26.032Z,20.30
2023-09-05T08:41:53.730Z,20.50
2023-09-05T08:44:26.287Z,20.60
2023-09-05T08:46:53.283Z,20.80
2023-09-05T08:49:20.222Z,20.90
2023-09-05T08:51:49.428Z,21.10
2023-09-05T08:54:21.824Z,21.20
2023-09-05T08:56:48.800Z,21.30
2023-09-05T08:59:21.114Z,21.30
2023-09-05T09:01:55.699Z,21.40
2023-09-05T09:04:25.045Z,21.50
2023-09-05T09:06:59.104Z,21.60
2023-09-05T09:09:34.971Z,21.70
2023-09-05T09:12:01.897Z,21.90
2023-09-05T09:14:28.848Z,22.00
2023-09-05T09:16:55.688Z,22.20
2023-09-05T09:19:22.607Z,22.40
2023-09-05T09:21:49.357Z,22.60
2023-09-05T09:24:19.879Z,22.80
2023-09-05T09:26:56.892Z,23.10
2023-09-05T09:29:56.557Z,23.50
2023-09-05T09:32:26.209Z,23.90
2023-09-05T09:34:53.050Z,24.40
2023-09-05T09:37:25.857Z,24.70
2023-09-05T09:40:14.238Z,25.10
2023-09-05T09:42:41.209Z,25.40
2023-09-05T09:45:11.246Z,25.70
2023-09-05T09:47:39.568Z,26.00
2023-09-05T09:50:09.180Z,26.30
2023-09-05T09:52:36.161Z,26.50
2023-09-05T09:55:04.335Z,26.80
2023-09-05T09:57:43.283Z,27.00
2023-09-05T10:00:12.962Z,27.30
2023-09-05T10:02:39.994Z,27.60
2023-09-05T10:05:10.057Z,27.90
2023-09-05T10:07:36.888Z,28.10
2023-09-05T10:10:06.905Z,28.30
2023-09-05T10:12:37.134Z,28.50
2023-09-05T10:15:18.100Z,28.80
2023-09-05T10:17:51.092Z,29.10
2023-09-05T10:20:23.980Z,29.40
2023-09-05T10:22:54.599Z,29.50
2023-09-05T10:25:21.553Z,29.60
2023-09-05T10:27:49.967Z,29.50
2023-09-05T10:33:38.806Z,29.80
2023-09-05T10:36:07.779Z,30.10
2023-09-05T10:38:40.158Z,30.30
2023-09-05T10:41:09.586Z,30.50
2023-09-05T10:43:36.500Z,30.70
2023-09-05T10:46:20.064Z,30.80
2023-09-05T10:48:47.031Z,31.00
2023-09-05T10:51:14.960Z,31.20
2023-09-05T10:54:26.301Z,31.40
2023-09-05T10:57:30.461Z,31.60
2023-09-05T10:59:57.778Z,31.80
2023-09-05T11:02:50.517Z,32.00
2023-09-05T11:05:20.771Z,32.20
2023-09-05T11:07:51.658Z,32.40
2023-09-05T11:10:31.348Z,32.40
2023-09-05T11:13:10.108Z,32.50
2023-09-05T11:15:40.765Z,32.70
2023-09-05T11:18:15.434Z,32.80
2023-09-05T11:20:49.787Z,33.00
2023-09-05T11:23:30.680Z,33.20
2023-09-05T11:26:01.758Z,33.40
2023-09-05T11:28:36.042Z,33.50
2023-09-05T11:31:09.827Z,33.60
2023-09-05T11:34:33.674Z,33.70
2023-09-05T11:37:47.422Z,33.70
2023-09-05T11:40:23.279Z,33.70
2023-09-05T11:42:50.263Z,33.70
2023-09-05T11:45:29.988Z,33.60
2023-09-05T11:47:59.529Z,33.70
2023-09-05T11:50:26.643Z,33.80
2023-09-05T11:56:40.112Z,33.90
2023-09-05T11:59:07.070Z,33.80
2023-09-05T12:01:33.995Z,33.90
2023-09-05T12:04:20.560Z,34.00
2023-09-05T12:07:12.305Z,34.10
2023-09-05T12:09:39.371Z,34.20
2023-09-05T12:13:03.601Z,34.40
2023-09-05T12:15:31.627Z,34.60
2023-09-05T12:18:00.848Z,34.70
2023-09-05T12:20:28.025Z,34.70
2023-09-05T12:22:54.768Z,34.80
2023-09-05T12:25:42.670Z,34.90
2023-09-05T12:29:34.086Z,35.00
2023-09-05T12:32:00.924Z,35.10
2023-09-05T12:34:46.615Z,35.20
2023-09-05T12:37:19.018Z,35.20
2023-09-05T12:39:46.016Z,35.30
2023-09-05T12:42:15.851Z,35.30
2023-09-05T12:44:42.785Z,35.30
2023-09-05T12:47:24.594Z,35.30
2023-09-05T12:50:08.254Z,35.50
2023-09-05T12:52:38.046Z,35.70
2023-09-05T12:55:05.093Z,35.70
2023-09-05T12:57:31.993Z,35.90
2023-09-05T12:59:59.201Z,36.00
2023-09-05T13:02:26.051Z,36.10
2023-09-05T13:04:52.945Z,36.10
2023-09-05T13:07:20.012Z,36.00
2023-09-05T13:09:46.730Z,35.90
2023-09-05T13:12:13.762Z,35.70
2023-09-05T13:14:40.730Z,35.70
2023-09-05T13:17:07.465Z,35.70
2023-09-05T13:19:35.068Z,35.70
2023-09-05T13:22:01.873Z,35.70
2023-09-05T13:24:28.882Z,35.80
2023-09-05T13:26:57.142Z,35.80
2023-09-05T13:29:24.123Z,35.70
2023-09-05T13:31:51.036Z,35.60
2023-09-05T13:34:18.144Z,35.60
2023-09-05T13:36:50.519Z,35.70
2023-09-05T13:39:17.899Z,35.50
2023-09-05T13:41:44.820Z,35.40
2023-09-05T13:44:12.901Z,35.50
2023-09-05T13:46:39.862Z,35.60
2023-09-05T13:49:15.641Z,35.60
2023-09-05T13:51:44.694Z,35.70
2023-09-05T13:54:14.732Z,35.80
2023-09-05T13:56:48.136Z,35.80
2023-09-05T13:59:15.261Z,35.80
2023-09-05T14:01:42.513Z,35.90
2023-09-05T14:04:11.515Z,36.00
2023-09-05T14:06:43.998Z,36.10
2023-09-05T14:09:18.343Z,36.00
2023-09-05T14:11:54.068Z,35.90
2023-09-05T14:14:23.460Z,35.90
2023-09-05T14:16:55.029Z,35.90
2023-09-05T14:19:22.131Z,35.90
2023-09-05T14:21:49.224Z,35.80
2023-09-05T14:24:16.074Z,35.80
2023-09-05T14:26:42.901Z,35.70
2023-09-05T14:29:10.097Z,35.60
2023-09-05T14:31:40.129Z,35.40
2023-09-05T14:34:10.384Z,35.30
2023-09-05T14:36:42.627Z,35.20
2023-09-05T14:39:09.521Z,35.10
2023-09-05T14:41:36.763Z,35.10
2023-09-05T14:44:05.621Z,35.10
2023-09-05T14:46:35.647Z,35.00
2023-09-05T14:49:03.499Z,34.90
2023-09-05T14:51:30.865Z,34.70
2023-09-05T14:53:58.356Z,34.40
2023-09-05T14:56:25.270Z,34.00
2023-09-05T14:58:56.319Z,33.70
2023-09-05T15:01:26.304Z,33.30
2023-09-05T15:03:54.494Z,33.10
2023-09-05T15:06:21.495Z,32.80
2023-09-05T15:08:51.172Z,32.50
2023-09-05T15:11:19.869Z,32.10
2023-09-05T15:13:53.514Z,31.70
2023-09-05T15:16:25.765Z,31.50
2023-09-05T15:18:52.605Z,31.30
2023-09-05T15:21:19.464Z,31.00
2023-09-05T15:23:46.253Z,30.80
2023-09-05T15:26:13.135Z,30.70
2023-09-05T15:28:41.457Z,30.50
2023-09-05T15:31:09.903Z,30.40
2023-09-05T15:33:36.992Z,30.30
2023-09-05T15:36:03.902Z,30.10
2023-09-05T15:38:30.808Z,30.00
2023-09-05T15:40:57.669Z,30.00
2023-09-05T15:43:24.533Z,29.80
2023-09-05T15:45:51.999Z,29.70
2023-09-05T15:48:20.658Z,29.50
2023-09-05T15:50:48.881Z,29.40
2023-09-05T15:53:18.946Z,29.30
2023-09-05T15:55:45.872Z,29.30
2023-09-05T15:58:12.818Z,29.20
2023-09-05T16:00:39.872Z,29.10
2023-09-05T16:03:09.877Z,29.00
2023-09-05T16:05:36.853Z,29.00
2023-09-05T16:08:04.177Z,28.90
2023-09-05T16:10:30.965Z,28.70
2023-09-05T16:12:57.714Z,28.70
2023-09-05T16:15:24.566Z,28.60
2023-09-05T16:17:51.566Z,28.60
2023-09-05T16:20:18.670Z,28.60
2023-09-05T16:22:45.578Z,28.50
2023-09-05T16:25:12.512Z,28.50
2023-09-05T16:27:39.414Z,28.50
2023-09-05T16:30:09.775Z,28.40
2023-09-05T16:32:37.217Z,28.40
2023-09-05T16:35:04.681Z,28.30
2023-09-05T16:37:32.068Z,28.30
2023-09-05T16:40:00.017Z,28.30
2023-09-05T16:42:27.163Z,28.20
2023-09-05T16:44:54.118Z,28.10
2023-09-05T16:47:21.135Z,28.10
2023-09-05T16:49:48.041Z,28.10
2023-09-05T16:52:16.242Z,28.00
2023-09-05T16:54:44.102Z,28.00
2023-09-05T16:57:13.542Z,28.00
2023-09-05T16:59:41.868Z,28.00
2023-09-05T17:02:08.689Z,28.10
2023-09-05T17:07:24.310Z,28.20
2023-09-05T17:09:54.190Z,28.20
2023-09-05T17:12:21.062Z,28.30
2023-09-05T17:14:47.898Z,28.20
2023-09-05T17:17:14.827Z,28.20
2023-09-05T17:19:50.562Z,28.20
2023-09-05T17:22:20.558Z,28.10
2023-09-05T17:24:48.158Z,28.00
2023-09-05T17:27:15.189Z,27.90
2023-09-05T17:29:42.236Z,27.80
2023-09-05T17:32:10.108Z,27.80
2023-09-05T17:34:36.925Z,27.70
2023-09-05T17:37:32.130Z,27.60
2023-09-05T17:39:58.936Z,27.50
2023-09-05T17:42:26.209Z,27.40
2023-09-05T17:44:53.542Z,27.30
2023-09-05T17:47:20.366Z,27.10
2023-09-05T17:49:47.351Z,26.90
2023-09-05T17:52:14.279Z,26.80
2023-09-05T17:54:41.279Z,26.60
2023-09-05T17:57:08.031Z,26.50
2023-09-05T17:59:35.937Z,26.40
2023-09-05T18:04:49.945Z,26.10
2023-09-05T18:07:19.592Z,26.00
2023-09-05T18:20:56.313Z,25.40
2023-09-05T18:23:26.046Z,25.20
2023-09-05T18:26:16.454Z,25.20
2023-09-05T18:28:45.930Z,25.00
2023-09-05T18:31:18.812Z,24.90
2023-09-05T18:33:49.789Z,24.80
2023-09-05T18:36:26.411Z,24.70
2023-09-05T18:38:53.565Z,24.70
2023-09-05T18:41:20.506Z,24.60
2023-09-05T18:43:47.892Z,24.50
2023-09-05T18:46:15.871Z,24.40
2023-09-05T18:48:43.194Z,24.30
2023-09-05T18:51:14.969Z,24.30
2023-09-05T18:53:47.502Z,24.20
2023-09-05T18:56:14.419Z,24.00
2023-09-05T18:59:43.689Z,24.00
2023-09-05T20:36:46.989Z,22.00
2023-09-05T20:40:17.991Z,21.90
2023-09-05T20:42:55.273Z,21.90
2023-09-05T20:46:09.310Z,21.70
2023-09-05T20:49:24.964Z,21.90
2023-09-05T20:52:16.832Z,21.80
2023-09-05T20:55:09.635Z,21.80
2023-09-05T20:57:49.054Z,21.70
2023-09-05T21:00:51.630Z,21.70
2023-09-05T21:04:22.810Z,21.60
2023-09-05T21:07:45.854Z,21.60
2023-09-05T21:20:35.003Z,21.50
2023-09-05T21:23:02.299Z,21.40
2023-09-05T21:25:31.631Z,21.30
2023-09-05T21:28:00.607Z,21.30
2023-09-05T21:30:34.503Z,21.30
2023-09-05T21:33:03.188Z,21.20
2023-09-05T21:35:30.052Z,21.20
2023-09-05T21:38:03.710Z,21.30
2023-09-05T21:40:33.629Z,21.10
2023-09-05T21:43:00.509Z,21.10
2023-09-05T21:45:31.913Z,21.10
2023-09-05T21:53:20.391Z,21.00
2023-09-05T21:55:47.173Z,20.90
2023-09-05T21:58:13.884Z,20.90
2023-09-05T22:00:49.868Z,20.90
2023-09-05T22:03:22.748Z,20.90
2023-09-05T22:05:56.181Z,20.80
2023-09-05T22:08:25.880Z,20.80
2023-09-05T22:10:55.212Z,20.70
2023-09-05T22:13:27.374Z,20.70
2023-09-05T22:16:12.144Z,20.70
2023-09-05T22:18:42.799Z,20.60
2023-09-05T22:21:12.600Z,20.60
2023-09-05T22:23:42.438Z,20.60
2023-09-05T22:26:12.397Z,20.60
2023-09-05T22:28:41.322Z,20.50
2023-09-05T22:31:10.953Z,20.50
2023-09-05T22:33:40.625Z,20.50
2023-09-05T22:36:07.704Z,20.50
2023-09-05T22:38:34.730Z,20.40
2023-09-05T22:41:04.060Z,20.40
2023-09-05T22:43:33.151Z,20.40
2023-09-05T22:46:00.181Z,20.30
2023-09-05T22:48:27.267Z,20.30
2023-09-05T22:50:54.340Z,20.30
2023-09-05T22:53:21.210Z,20.30
2023-09-05T22:55:48.701Z,20.30
2023-09-05T22:58:16.461Z,20.20
2023-09-05T23:00:52.372Z,20.20
2023-09-05T23:03:21.112Z,20.20
2023-09-05T23:05:48.188Z,20.20
2023-09-05T23:08:14.968Z,20.20
2023-09-05T23:10:44.402Z,20.10
2023-09-05T23:13:11.208Z,20.10
2023-09-05T23:15:39.298Z,20.10
2023-09-05T23:18:06.462Z,20.10
2023-09-05T23:20:33.251Z,20.10
2023-09-05T23:23:00.128Z,20.00
2023-09-05T23:25:28.971Z,20.00
2023-09-05T23:27:55.906Z,20.00
2023-09-05T23:30:22.788Z,19.90
2023-09-05T23:32:50.993Z,19.90
2023-09-05T23:35:19.507Z,19.90
2023-09-05T23:37:46.322Z,19.90
2023-09-05T23:40:20.283Z,19.90
2023-09-05T23:42:47.199Z,19.90
2023-09-05T23:45:16.804Z,19.80
2023-09-05T23:47:48.426Z,19.80
2023-09-05T23:50:16.328Z,19.80
2023-09-05T23:52:43.164Z,19.80
2023-09-05T23:55:10.389Z,19.70
2023-09-05T23:57:37.242Z,19.70
